createdAt,value
2023-01-19T00:02:55.204Z,84.60
2023-01-19T00:07:05.357Z,84.42
2023-01-19T00:11:14.183Z,84.27
2023-01-19T00:15:22.209Z,84.54
2023-01-19T00:19:30.240Z,84.48
2023-01-19T00:23:38.061Z,84.45
2023-01-19T00:27:49.338Z,84.45
2023-01-19T00:31:56.940Z,84.48
2023-01-19T00:36:05.262Z,84.59
2023-01-19T00:40:15.404Z,84.75
2023-01-19T00:44:23.159Z,84.67
2023-01-19T00:48:31.008Z,84.52
2023-01-19T00:52:39.488Z,84.48
2023-01-19T00:56:47.244Z,84.51
2023-01-19T01:00:57.894Z,84.50
2023-01-19T01:05:06.462Z,84.61
2023-01-19T01:09:14.482Z,84.33
2023-01-19T01:13:26.344Z,84.23
2023-01-19T01:17:35.838Z,84.31
2023-01-19T01:21:47.043Z,84.43
2023-01-19T01:25:55.008Z,84.17
2023-01-19T01:30:02.580Z,83.93
2023-01-19T01:34:10.570Z,83.84
2023-01-19T01:38:18.320Z,83.64
2023-01-19T01:42:30.227Z,83.34
2023-01-19T01:46:37.884Z,83.18
2023-01-19T01:51:02.930Z,83.10
2023-01-19T01:55:11.466Z,82.97
2023-01-19T01:59:27.288Z,82.73
2023-01-19T02:03:36.287Z,82.69
2023-01-19T02:08:05.493Z,82.55
2023-01-19T02:12:31.199Z,82.44
2023-01-19T02:16:43.058Z,82.42
2023-01-19T02:20:57.807Z,82.19
2023-01-19T02:25:06.580Z,82.22
2023-01-19T02:29:16.007Z,81.98
2023-01-19T02:33:24.093Z,82.02
2023-01-19T02:37:32.933Z,82.07
2023-01-19T02:41:44.203Z,82.03
2023-01-19T02:45:52.603Z,82.16
2023-01-19T02:50:01.424Z,82.10
2023-01-19T02:54:33.345Z,82.17
2023-01-19T02:58:46.796Z,82.18
2023-01-19T03:03:03.534Z,82.25
2023-01-19T03:07:13.303Z,82.39
2023-01-19T03:11:21.296Z,82.46
2023-01-19T03:15:34.358Z,82.51
2023-01-19T03:19:44.165Z,82.66
2023-01-19T03:23:53.742Z,82.66
2023-01-19T03:28:02.051Z,82.91
2023-01-19T03:32:13.301Z,82.54
2023-01-19T03:36:23.250Z,82.75
2023-01-19T03:40:32.960Z,82.85
2023-01-19T03:44:42.381Z,82.87
2023-01-19T03:48:51.013Z,83.14
2023-01-19T03:53:08.808Z,83.28
2023-01-19T03:57:16.003Z,83.48
2023-01-19T04:01:23.953Z,83.68
2023-01-19T04:05:32.804Z,84.05
2023-01-19T04:09:40.563Z,84.39
2023-01-19T04:13:48.694Z,84.80
2023-01-19T04:17:56.352Z,84.86
2023-01-19T04:22:05.002Z,85.21
2023-01-19T04:26:13.098Z,85.40
2023-01-19T04:30:21.611Z,85.48
2023-01-19T04:34:30.310Z,85.44
2023-01-19T04:38:38.751Z,85.45
2023-01-19T04:42:48.531Z,85.51
2023-01-19T04:46:56.496Z,85.55
2023-01-19T04:51:04.139Z,85.63
2023-01-19T04:55:13.390Z,85.65
2023-01-19T04:59:21.695Z,85.66
2023-01-19T05:03:29.955Z,85.76
2023-01-19T05:07:37.862Z,85.79
2023-01-19T05:11:45.450Z,85.80
2023-01-19T05:15:52.896Z,85.81
2023-01-19T05:20:00.423Z,85.76
2023-01-19T05:24:10.740Z,85.70
2023-01-19T05:28:18.664Z,85.73
2023-01-19T05:32:26.045Z,85.69
2023-01-19T05:36:34.095Z,85.75
2023-01-19T05:40:41.843Z,85.72
2023-01-19T05:44:49.521Z,85.74
2023-01-19T05:48:57.799Z,85.78
2023-01-19T05:53:05.916Z,85.64
2023-01-19T05:57:13.417Z,85.67
2023-01-19T06:01:20.765Z,85.62
2023-01-19T06:05:29.019Z,85.66
2023-01-19T06:09:36.670Z,85.61
2023-01-19T06:13:44.558Z,85.34
2023-01-19T06:17:51.984Z,85.31
2023-01-19T06:22:00.117Z,85.27
2023-01-19T06:26:08.502Z,85.02
2023-01-19T06:30:17.351Z,84.94
2023-01-19T06:34:29.230Z,84.42
2023-01-19T06:38:39.516Z,83.74
2023-01-19T06:42:47.651Z,83.58
2023-01-19T06:47:15.317Z,83.35
2023-01-19T06:51:23.852Z,82.59
2023-01-19T06:55:31.797Z,82.20
2023-01-19T06:59:41.778Z,81.69
2023-01-19T07:03:49.299Z,81.16
2023-01-19T07:07:57.919Z,81.05
2023-01-19T07:12:07.069Z,80.54
2023-01-19T07:16:16.079Z,80.43
2023-01-19T07:20:24.565Z,80.49
2023-01-19T07:24:33.904Z,80.45
2023-01-19T07:28:42.046Z,80.41
2023-01-19T07:32:49.326Z,80.57
2023-01-19T07:36:58.735Z,80.56
2023-01-19T07:41:07.714Z,80.46
2023-01-19T07:45:16.413Z,80.51
2023-01-19T07:49:24.149Z,80.69
2023-01-19T07:53:31.477Z,80.78
2023-01-19T07:57:39.230Z,80.88
2023-01-19T08:01:46.857Z,81.03
2023-01-19T08:05:57.881Z,80.97
2023-01-19T08:10:06.058Z,80.98
2023-01-19T08:14:14.083Z,81.13
2023-01-19T08:18:22.141Z,81.13
2023-01-19T08:22:29.649Z,81.14
2023-01-19T08:26:39.181Z,80.95
2023-01-19T08:30:54.288Z,80.81
2023-01-19T08:35:02.361Z,80.60
2023-01-19T08:39:14.361Z,80.22
2023-01-19T08:43:22.278Z,80.30
2023-01-19T08:47:30.912Z,80.27
2023-01-19T08:51:38.451Z,80.06
2023-01-19T08:55:46.109Z,79.70
2023-01-19T08:59:53.985Z,79.57
2023-01-19T09:04:01.866Z,79.60
2023-01-19T09:08:11.070Z,79.27
2023-01-19T09:12:18.704Z,78.99
2023-01-19T09:16:27.303Z,78.73
2023-01-19T09:20:38.696Z,78.73
2023-01-19T09:24:46.433Z,78.45
2023-01-19T09:28:54.723Z,78.55
2023-01-19T09:33:06.618Z,78.40
2023-01-19T09:37:14.217Z,77.93
2023-01-19T09:41:25.140Z,77.98
2023-01-19T09:45:38.473Z,77.27
2023-01-19T09:49:48.824Z,77.19
2023-01-19T09:54:01.620Z,77.00
2023-01-19T09:58:13.204Z,77.29
2023-01-19T10:02:37.285Z,77.26
2023-01-19T10:06:46.389Z,77.19
2023-01-19T10:10:58.629Z,76.46
2023-01-19T10:15:14.336Z,75.90
2023-01-19T10:19:27.416Z,75.86
2023-01-19T10:23:45.173Z,75.31
2023-01-19T10:27:52.730Z,75.00
2023-01-19T10:32:05.810Z,75.09
2023-01-19T10:36:20.243Z,74.64
2023-01-19T10:40:35.772Z,74.31
2023-01-19T10:44:46.049Z,73.54
2023-01-19T10:48:55.285Z,73.54
2023-01-19T10:53:05.835Z,73.41
2023-01-19T10:57:21.857Z,73.13
2023-01-19T11:01:31.474Z,72.94
2023-01-19T11:05:42.238Z,72.80
2023-01-19T11:09:49.931Z,72.10
2023-01-19T11:14:11.625Z,72.31
2023-01-19T11:18:28.623Z,72.03
2023-01-19T11:22:37.214Z,71.57
2023-01-19T11:26:48.030Z,70.13
2023-01-19T11:31:00.750Z,69.98
2023-01-19T11:35:35.583Z,69.91
2023-01-19T11:39:51.740Z,69.29
2023-01-19T11:44:01.792Z,70.16
2023-01-19T11:48:20.360Z,70.15
2023-01-19T11:52:31.747Z,68.87
2023-01-19T11:56:39.525Z,67.96
2023-01-19T12:00:50.127Z,68.50
2023-01-19T12:05:00.611Z,68.69
2023-01-19T12:09:13.310Z,68.29
2023-01-19T12:13:26.838Z,68.25
2023-01-19T12:17:37.767Z,68.33
2023-01-19T12:21:48.275Z,67.92
2023-01-19T12:26:05.997Z,67.95
2023-01-19T12:30:21.168Z,68.60
2023-01-19T12:34:38.389Z,68.19
2023-01-19T12:38:53.976Z,67.65
2023-01-19T12:43:05.379Z,67.59
2023-01-19T12:47:24.530Z,66.77
2023-01-19T12:51:32.793Z,66.76
2023-01-19T12:55:47.527Z,66.28
2023-01-19T13:00:01.452Z,66.25
2023-01-19T13:04:31.000Z,66.47
2023-01-19T13:09:00.007Z,66.56
2023-01-19T13:13:20.242Z,65.10
2023-01-19T13:17:35.491Z,65.20
2023-01-19T13:21:45.641Z,64.05
2023-01-19T13:26:05.330Z,62.76
2023-01-19T13:30:19.197Z,62.53
2023-01-19T13:34:28.479Z,62.59
2023-01-19T13:38:36.368Z,62.60
2023-01-19T13:42:46.139Z,61.82
2023-01-19T13:46:54.626Z,61.74
2023-01-19T13:51:08.430Z,60.84
2023-01-19T13:55:19.133Z,60.96
2023-01-19T13:59:27.384Z,61.74
2023-01-19T14:03:37.230Z,62.20
2023-01-19T14:07:45.862Z,61.95
2023-01-19T14:16:29.942Z,61.32
2023-01-19T14:20:37.884Z,61.86
2023-01-19T14:24:46.007Z,62.24
2023-01-19T14:28:54.215Z,62.41
2023-01-19T14:33:01.864Z,62.48
2023-01-19T14:37:20.211Z,62.79
2023-01-19T14:41:31.446Z,63.36
2023-01-19T14:45:42.532Z,63.45
2023-01-19T14:49:51.774Z,63.82
2023-01-19T14:54:01.128Z,64.14
2023-01-19T14:58:14.065Z,64.44
2023-01-19T15:02:22.212Z,65.00
2023-01-19T15:06:29.764Z,65.47
2023-01-19T15:10:38.252Z,65.89
2023-01-19T15:14:46.277Z,66.02
2023-01-19T15:18:54.533Z,66.28
2023-01-19T15:23:02.727Z,66.48
2023-01-19T15:27:15.130Z,66.75
2023-01-19T15:31:24.721Z,66.67
2023-01-19T15:35:32.551Z,67.12
2023-01-19T15:39:41.770Z,67.31
2023-01-19T15:43:49.679Z,67.77
2023-01-19T15:47:57.273Z,67.80
2023-01-19T15:52:05.073Z,67.94
2023-01-19T15:56:17.367Z,68.33
2023-01-19T16:00:26.811Z,68.88
2023-01-19T16:04:34.732Z,69.10
2023-01-19T16:08:43.792Z,69.11
2023-01-19T16:12:52.586Z,69.31
2023-01-19T16:17:02.195Z,69.43
2023-01-19T16:21:09.979Z,69.80
2023-01-19T16:25:17.891Z,70.18
2023-01-19T16:29:26.593Z,70.53
2023-01-19T16:33:34.883Z,70.68
2023-01-19T16:37:43.107Z,70.95
2023-01-19T16:41:52.151Z,71.43
2023-01-19T16:46:02.125Z,71.38
2023-01-19T16:50:13.622Z,71.58
2023-01-19T16:54:23.469Z,72.12
2023-01-19T16:58:31.263Z,72.22
2023-01-19T17:02:39.653Z,71.83
2023-01-19T17:06:48.000Z,71.60
2023-01-19T17:10:56.439Z,71.43
2023-01-19T17:15:04.676Z,71.39
2023-01-19T17:19:16.739Z,71.63
2023-01-19T17:23:26.256Z,71.82
2023-01-19T17:27:36.023Z,72.04
2023-01-19T17:31:44.493Z,72.21
2023-01-19T17:35:53.784Z,72.04
2023-01-19T17:40:02.212Z,72.11
2023-01-19T17:44:12.492Z,72.51
2023-01-19T17:48:21.768Z,72.95
2023-01-19T17:52:29.669Z,72.61
2023-01-19T17:56:39.070Z,72.27
2023-01-19T18:00:46.456Z,72.32
2023-01-19T18:04:56.507Z,72.39
2023-01-19T18:09:05.417Z,72.72
2023-01-19T18:13:12.940Z,73.04
2023-01-19T18:17:21.061Z,73.14
2023-01-19T18:21:30.873Z,73.30
2023-01-19T18:25:39.964Z,73.10
2023-01-19T18:29:47.684Z,73.39
2023-01-19T18:33:55.559Z,73.52
2023-01-19T18:38:03.228Z,73.86
2023-01-19T18:42:11.209Z,74.24
2023-01-19T18:46:21.328Z,73.73
2023-01-19T18:50:29.288Z,73.88
2023-01-19T18:54:37.463Z,74.23
2023-01-19T18:58:45.931Z,74.50
2023-01-19T19:02:55.991Z,74.68
2023-01-19T19:07:03.921Z,74.48
2023-01-19T19:11:14.078Z,74.53
2023-01-19T19:15:22.270Z,74.76
2023-01-19T19:19:30.084Z,74.77
2023-01-19T19:23:40.096Z,74.83
2023-01-19T19:27:48.624Z,74.84
2023-01-19T19:31:56.989Z,74.91
2023-01-19T19:36:05.206Z,75.23
2023-01-19T19:40:15.434Z,75.58
2023-01-19T19:44:24.029Z,75.79
2023-01-19T19:48:31.722Z,76.03
2023-01-19T19:52:42.840Z,76.10
2023-01-19T19:56:52.495Z,75.86
2023-01-19T20:01:04.342Z,75.91
2023-01-19T20:05:12.995Z,75.63
2023-01-19T20:09:20.643Z,75.95
2023-01-19T20:13:30.111Z,76.42
2023-01-19T20:17:39.351Z,76.85
2023-01-19T20:21:46.926Z,76.77
2023-01-19T20:25:55.122Z,76.66
2023-01-19T20:30:04.009Z,76.60
2023-01-19T20:34:12.633Z,76.72
2023-01-19T20:38:22.812Z,77.01
2023-01-19T20:42:31.075Z,77.16
2023-01-19T20:46:39.148Z,77.11
2023-01-19T20:50:46.630Z,77.24
2023-01-19T20:54:55.897Z,77.20
2023-01-19T20:59:03.406Z,77.26
2023-01-19T21:03:11.536Z,77.51
2023-01-19T21:07:19.440Z,77.30
2023-01-19T21:11:27.906Z,77.48
2023-01-19T21:15:36.505Z,77.51
2023-01-19T21:19:45.261Z,77.48
2023-01-19T21:23:54.050Z,77.59
2023-01-19T21:28:02.039Z,77.52
2023-01-19T21:32:10.145Z,77.56
2023-01-19T21:36:18.107Z,77.65
2023-01-19T21:40:26.202Z,78.08
2023-01-19T21:44:33.963Z,77.99
2023-01-19T21:48:42.102Z,77.97
2023-01-19T21:52:50.393Z,78.36
2023-01-19T21:56:58.551Z,77.93
2023-01-19T22:01:14.213Z,78.00
2023-01-19T22:05:22.500Z,77.99
2023-01-19T22:09:31.754Z,78.01
2023-01-19T22:13:40.269Z,77.94
2023-01-19T22:17:48.458Z,77.76
2023-01-19T22:21:56.161Z,77.96
2023-01-19T22:26:03.772Z,77.90
2023-01-19T22:30:13.141Z,77.76
2023-01-19T22:34:21.189Z,77.82
2023-01-19T22:38:28.689Z,77.81
2023-01-19T22:42:36.400Z,77.90
2023-01-19T22:46:44.189Z,78.04
2023-01-19T22:50:51.698Z,78.36
2023-01-19T22:55:00.203Z,78.34
2023-01-19T22:59:08.191Z,78.39
2023-01-19T23:03:16.157Z,78.59
2023-01-19T23:07:23.941Z,78.60
2023-01-19T23:11:35.939Z,78.69
2023-01-19T23:15:43.637Z,78.58
2023-01-19T23:19:52.064Z,78.40
2023-01-19T23:24:00.785Z,78.50
2023-01-19T23:28:09.260Z,78.38
2023-01-19T23:32:17.680Z,78.46
2023-01-19T23:36:26.580Z,78.41
2023-01-19T23:40:34.457Z,78.60
2023-01-19T23:44:44.278Z,78.51
2023-01-19T23:48:52.152Z,78.48
2023-01-19T23:52:59.689Z,78.39
2023-01-19T23:57:07.620Z,78.53
